Time;durP1;ratioP1;P1;durP2;ratioP2;P2;SDS_P1;SDS_P2;PMS_P1;PMS_P2;Temp;Humidity;BMP_temperature;BMP_pressure;BME280_temperature;BME280_humidity;BME280_pressure;Samples;Min_cycle;Max_cycle;Signal;HPM_P1;HPM_P2
2024/03/26 00:02:02;;;;;;;3.53;1.80;;;16.90;63.60;;;;;;5070006;28;20373;-76
2024/03/26 00:04:28;;;;;;;3.65;1.83;;;16.90;63.40;;;;;;5086354;28;20363;-76
2024/03/26 00:06:54;;;;;;;3.63;2.10;;;16.90;63.50;;;;;;5069885;28;20048;-75
2024/03/26 00:09:20;;;;;;;5.72;1.45;;;16.90;63.50;;;;;;5086915;28;20470;-76
2024/03/26 00:11:46;;;;;;;2.90;1.40;;;16.90;63.30;;;;;;5071328;28;20025;-76
2024/03/26 00:14:12;;;;;;;6.17;1.73;;;16.90;63.30;;;;;;5069411;28;20024;-76
2024/03/26 00:16:38;;;;;;;4.03;1.55;;;16.90;63.30;;;;;;5071033;28;20572;-76
2024/03/26 00:19:03;;;;;;;4.00;1.70;;;16.80;63.40;;;;;;5069695;28;20246;-76
2024/03/26 00:21:29;;;;;;;3.70;1.80;;;16.90;63.40;;;;;;5070367;28;20028;-76
2024/03/26 00:23:55;;;;;;;2.90;1.60;;;16.80;63.40;;;;;;5069601;28;20391;-75
2024/03/26 00:26:20;;;;;;;5.43;2.17;;;16.80;63.60;;;;;;5068130;28;20036;-76
2024/03/26 00:28:46;;;;;;;3.40;1.40;;;16.80;63.50;;;;;;5069532;28;20415;-76
2024/03/26 00:31:12;;;;;;;4.67;2.10;;;16.80;63.50;;;;;;5070466;28;20096;-76
2024/03/26 00:33:38;;;;;;;6.23;1.70;;;16.80;63.70;;;;;;5070248;28;20024;-76
2024/03/26 00:36:04;;;;;;;4.33;1.43;;;16.80;63.70;;;;;;5068959;28;20063;-76
2024/03/26 00:38:29;;;;;;;4.57;2.17;;;16.80;63.70;;;;;;5070690;28;20033;-76
2024/03/26 00:40:55;;;;;;;4.33;1.90;;;16.80;63.70;;;;;;5086782;28;20020;-75
2024/03/26 00:43:21;;;;;;;4.20;1.73;;;16.70;63.70;;;;;;5069485;28;20035;-76
2024/03/26 00:45:46;;;;;;;4.57;1.87;;;16.70;63.60;;;;;;5069240;28;20023;-76
2024/03/26 00:48:12;;;;;;;5.77;1.97;;;16.70;63.60;;;;;;5069153;28;20020;-76
2024/03/26 00:50:38;;;;;;;2.30;1.70;;;16.70;63.50;;;;;;5069210;28;20089;-76
2024/03/26 00:53:04;;;;;;;3.85;1.50;;;16.60;63.60;;;;;;5070456;28;20769;-76
2024/03/26 00:55:30;;;;;;;2.33;1.43;;;16.60;63.70;;;;;;5085918;28;20039;-76
2024/03/26 00:57:56;;;;;;;4.87;1.77;;;16.60;63.60;;;;;;5069359;28;20043;-75
2024/03/26 01:00:22;;;;;;;4.50;1.60;;;16.60;63.60;;;;;;5070417;28;20044;-76
2024/03/26 01:02:47;;;;;;;5.97;1.63;;;16.60;63.70;;;;;;5085438;28;20292;-75
2024/03/26 01:05:13;;;;;;;7.27;1.77;;;16.60;63.70;;;;;;5068752;28;20023;-76
2024/03/26 01:07:39;;;;;;;3.00;1.70;;;16.60;63.80;;;;;;5069151;28;20044;-75
2024/03/26 01:10:05;;;;;;;4.87;1.53;;;16.60;63.80;;;;;;5069090;28;20457;-76
2024/03/26 01:12:31;;;;;;;3.30;1.75;;;16.60;64.00;;;;;;5070260;28;20031;-76
2024/03/26 01:14:56;;;;;;;3.20;1.50;;;16.60;64.00;;;;;;5070382;28;20076;-76
2024/03/26 01:17:22;;;;;;;3.37;1.87;;;16.60;64.00;;;;;;5068588;28;20036;-76
2024/03/26 01:19:48;;;;;;;4.27;1.30;;;16.60;64.00;;;;;;5068948;28;20016;-76
2024/03/26 01:22:13;;;;;;;1.70;1.40;;;16.50;64.10;;;;;;5069929;28;20021;-76
2024/03/26 01:24:39;;;;;;;3.87;1.40;;;16.50;64.10;;;;;;5070181;28;20101;-76
2024/03/26 01:27:05;;;;;;;6.27;1.93;;;16.50;64.10;;;;;;5068752;28;20021;-76
2024/03/26 01:29:30;;;;;;;2.40;1.53;;;16.50;64.10;;;;;;5063441;28;20029;-76
2024/03/26 01:31:56;;;;;;;2.93;1.50;;;16.50;63.90;;;;;;5070287;28;20355;-75
2024/03/26 01:34:22;;;;;;;2.80;1.33;;;16.40;64.00;;;;;;5069406;28;20028;-75
2024/03/26 01:36:47;;;;;;;3.03;1.20;;;16.50;63.90;;;;;;5073995;28;20385;-76
2024/03/26 01:39:13;;;;;;;4.60;1.80;;;16.50;64.00;;;;;;5089161;28;20116;-75
2024/03/26 01:41:39;;;;;;;3.27;1.37;;;16.40;64.00;;;;;;5072299;28;20024;-76
2024/03/26 01:44:08;;;;;;;3.47;1.83;;;16.40;64.10;;;;;;5072672;28;20040;-76
2024/03/26 01:46:36;;;;;;;5.15;1.42;;;16.40;64.10;;;;;;5089013;28;20063;-76
2024/03/26 01:49:06;;;;;;;2.10;1.40;;;16.40;64.20;;;;;;5089058;28;20050;-76
2024/03/26 01:51:34;;;;;;;4.82;1.35;;;16.40;64.30;;;;;;5072701;28;20108;-76
2024/03/26 01:54:03;;;;;;;2.78;1.20;;;16.40;64.30;;;;;;5073634;28;20031;-76
2024/03/26 01:56:29;;;;;;;1.95;1.10;;;16.40;64.40;;;;;;5071973;28;20029;-76
2024/03/26 01:58:55;;;;;;;4.63;1.63;;;16.40;64.40;;;;;;5073763;28;20046;-75
2024/03/26 02:01:22;;;;;;;4.00;1.60;;;16.30;64.40;;;;;;5073125;28;20024;-76
2024/03/26 02:03:48;;;;;;;;;;;16.30;64.40;;;;;;5072792;28;20025;-76
2024/03/26 02:06:14;;;;;;;2.80;1.15;;;16.30;64.40;;;;;;5073353;28;19965;-75
2024/03/26 02:08:40;;;;;;;2.07;1.40;;;16.30;64.40;;;;;;5071932;28;20047;-76
2024/03/26 02:11:06;;;;;;;3.25;1.35;;;16.30;64.30;;;;;;5073088;28;20091;-76
2024/03/26 02:13:31;;;;;;;9.50;1.90;;;16.30;64.30;;;;;;5073258;28;20047;-76
2024/03/26 02:15:57;;;;;;;2.77;1.30;;;16.30;64.40;;;;;;5072337;28;20032;-75
2024/03/26 02:18:23;;;;;;;4.33;1.70;;;16.30;64.30;;;;;;5071596;28;20032;-76
2024/03/26 02:20:48;;;;;;;1.67;1.10;;;16.30;64.30;;;;;;5073204;28;20024;-75
2024/03/26 02:23:22;;;;;;;5.40;1.40;;;16.30;64.30;;;;;;5071909;28;20028;-75
2024/03/26 02:25:48;;;;;;;3.65;1.30;;;16.30;64.40;;;;;;5088974;28;20347;-76
2024/03/26 02:28:14;;;;;;;3.50;1.20;;;16.20;64.40;;;;;;5072868;28;20468;-75
2024/03/26 02:30:40;;;;;;;3.07;1.40;;;16.20;64.50;;;;;;5073158;28;20039;-75
2024/03/26 02:33:05;;;;;;;2.50;1.20;;;16.20;64.50;;;;;;5072899;28;20055;-75
2024/03/26 02:35:31;;;;;;;3.07;1.30;;;16.20;64.50;;;;;;5073054;28;20375;-75
2024/03/26 02:37:57;;;;;;;3.80;1.25;;;16.20;64.50;;;;;;5071238;28;20031;-75
2024/03/26 02:40:23;;;;;;;6.03;1.50;;;16.20;64.60;;;;;;5071297;28;20029;-76
2024/03/26 02:42:49;;;;;;;4.43;1.20;;;16.20;64.60;;;;;;5071784;28;20021;-76
2024/03/26 02:45:15;;;;;;;4.03;1.30;;;16.20;64.70;;;;;;5084592;28;20468;-75
2024/03/26 02:47:40;;;;;;;2.83;1.37;;;16.20;64.60;;;;;;5087418;28;20025;-76
2024/03/26 02:50:07;;;;;;;7.07;1.70;;;16.10;64.60;;;;;;5087957;28;20025;-76
2024/03/26 02:52:32;;;;;;;3.85;1.55;;;16.10;64.50;;;;;;5073892;28;20024;-75
2024/03/26 02:54:58;;;;;;;3.87;1.23;;;16.10;64.50;;;;;;5087517;28;20033;-76
2024/03/26 02:57:24;;;;;;;3.10;1.37;;;16.10;64.50;;;;;;5070958;28;20079;-76
2024/03/26 02:59:49;;;;;;;5.30;1.50;;;16.10;64.60;;;;;;5087893;28;20108;-76
2024/03/26 03:02:15;;;;;;;5.10;1.40;;;16.10;64.60;;;;;;5072514;28;20028;-76
2024/03/26 03:04:41;;;;;;;3.40;1.40;;;16.10;64.60;;;;;;5071415;28;20081;-76
2024/03/26 03:07:06;;;;;;;2.00;1.30;;;16.10;64.60;;;;;;5087428;28;20452;-76
2024/03/26 03:09:32;;;;;;;4.07;1.40;;;16.10;64.70;;;;;;5072714;28;20024;-76
2024/03/26 03:11:57;;;;;;;6.57;1.50;;;16.10;64.70;;;;;;5087939;28;20013;-76
2024/03/26 03:14:23;;;;;;;3.57;1.50;;;16.00;64.70;;;;;;5088167;28;20111;-75
2024/03/26 03:16:49;;;;;;;2.27;1.20;;;16.00;64.70;;;;;;5070550;28;20110;-76
2024/03/26 03:19:14;;;;;;;2.60;1.30;;;16.00;64.80;;;;;;5087868;28;20028;-76
2024/03/26 03:21:40;;;;;;;2.03;1.23;;;16.00;64.70;;;;;;5072289;28;20021;-77
2024/03/26 03:24:06;;;;;;;2.07;1.07;;;16.00;64.80;;;;;;5087734;28;20025;-76
2024/03/26 03:26:32;;;;;;;1.93;1.23;;;16.00;64.80;;;;;;5087184;28;20470;-76
2024/03/26 03:28:57;;;;;;;2.33;1.30;;;15.90;64.70;;;;;;5070901;28;20013;-76
2024/03/26 03:31:23;;;;;;;4.60;1.37;;;15.90;64.80;;;;;;5087353;28;20067;-76
2024/03/26 03:33:49;;;;;;;3.63;1.60;;;15.90;64.80;;;;;;5087573;28;20072;-76
2024/03/26 03:36:14;;;;;;;1.40;0.87;;;15.90;64.80;;;;;;5087747;28;20032;-76
2024/03/26 03:38:40;;;;;;;3.33;1.40;;;15.90;64.80;;;;;;5087003;28;20530;-76
2024/03/26 03:41:06;;;;;;;1.87;1.03;;;15.90;64.80;;;;;;5070489;28;20013;-76
2024/03/26 03:43:31;;;;;;;4.70;1.27;;;15.90;64.90;;;;;;5087462;28;20112;-76
2024/03/26 03:45:57;;;;;;;2.03;1.07;;;15.90;64.80;;;;;;5087060;28;20044;-75
2024/03/26 03:48:23;;;;;;;2.77;1.27;;;15.90;64.90;;;;;;5087120;28;20024;-75
2024/03/26 03:50:49;;;;;;;2.30;1.27;;;15.80;64.90;;;;;;5071420;28;20776;-75
2024/03/26 03:53:15;;;;;;;1.80;1.00;;;15.80;64.90;;;;;;5071135;28;20074;-76
2024/03/26 03:55:41;;;;;;;3.42;1.40;;;15.80;64.90;;;;;;5071954;28;20033;-76
2024/03/26 03:58:07;;;;;;;1.70;1.50;;;15.80;64.90;;;;;;5070523;28;20087;-75
2024/03/26 04:00:33;;;;;;;1.90;0.98;;;15.80;64.90;;;;;;5071811;28;20023;-75
2024/03/26 04:02:59;;;;;;;3.40;0.90;;;15.80;64.90;;;;;;5086862;28;20623;-75
2024/03/26 04:05:25;;;;;;;5.00;1.33;;;15.80;65.00;;;;;;5086691;28;20070;-75
2024/03/26 04:07:50;;;;;;;2.77;1.17;;;15.80;65.00;;;;;;5086530;28;20056;-76
2024/03/26 04:10:16;;;;;;;2.90;1.20;;;15.80;65.00;;;;;;5087048;28;20024;-76
2024/03/26 04:12:42;;;;;;;3.13;1.20;;;15.80;65.00;;;;;;5069829;28;20029;-76
2024/03/26 04:15:10;;;;;;;2.08;1.27;;;15.70;65.00;;;;;;5086998;28;20025;-76
2024/03/26 04:17:36;;;;;;;3.15;1.40;;;15.70;65.00;;;;;;5086733;28;20609;-75
2024/03/26 04:20:02;;;;;;;2.57;1.13;;;15.70;65.00;;;;;;5070946;28;20024;-76
2024/03/26 04:22:28;;;;;;;3.40;1.15;;;15.70;65.00;;;;;;5070905;28;20343;-75
2024/03/26 04:24:53;;;;;;;2.10;1.00;;;15.70;65.00;;;;;;5086362;28;20031;-75
2024/03/26 04:27:19;;;;;;;3.83;1.20;;;15.70;65.00;;;;;;5086616;28;20074;-75
2024/03/26 04:29:45;;;;;;;2.37;1.20;;;15.70;65.00;;;;;;5086125;28;20043;-75
2024/03/26 04:32:10;;;;;;;1.67;1.30;;;15.70;65.00;;;;;;5086013;28;20024;-75
2024/03/26 04:34:36;;;;;;;2.80;1.17;;;15.70;65.10;;;;;;5070781;28;20453;-76
2024/03/26 04:37:03;;;;;;;3.73;1.43;;;15.60;65.10;;;;;;5086173;28;20079;-76
2024/03/26 04:39:30;;;;;;;2.22;1.02;;;15.60;65.10;;;;;;5086330;28;20024;-76
2024/03/26 04:41:56;;;;;;;1.10;0.98;;;15.70;65.20;;;;;;5070366;28;20021;-75
2024/03/26 04:44:22;;;;;;;2.60;1.10;;;15.60;65.20;;;;;;5071030;28;20477;-76
2024/03/26 04:46:48;;;;;;;5.03;1.30;;;15.60;65.10;;;;;;5070965;28;20050;-76
2024/03/26 04:49:14;;;;;;;1.93;1.17;;;15.60;65.10;;;;;;5086114;28;20024;-76
2024/03/26 04:51:40;;;;;;;4.93;1.08;;;15.60;65.10;;;;;;5070582;28;20273;-75
2024/03/26 04:54:06;;;;;;;2.70;1.23;;;15.60;65.20;;;;;;5070153;28;20489;-76
2024/03/26 04:56:31;;;;;;;1.93;0.97;;;15.60;65.10;;;;;;5069085;28;20113;-75
2024/03/26 04:58:57;;;;;;;2.67;1.27;;;15.60;65.10;;;;;;5086246;28;20029;-76
2024/03/26 05:01:23;;;;;;;6.10;1.10;;;15.60;65.10;;;;;;5070348;28;20517;-76
2024/03/26 05:03:48;;;;;;;1.93;0.90;;;15.60;65.00;;;;;;5070418;28;20032;-76
2024/03/26 05:06:14;;;;;;;1.83;1.20;;;15.50;65.10;;;;;;5069574;28;20091;-76
2024/03/26 05:08:41;;;;;;;2.53;1.30;;;15.50;65.20;;;;;;5085906;28;20481;-74
2024/03/26 05:11:07;;;;;;;3.55;1.30;;;15.50;65.20;;;;;;5070528;28;20074;-75
2024/03/26 05:13:32;;;;;;;5.20;1.10;;;15.50;65.20;;;;;;5085748;28;20036;-75
2024/03/26 05:15:59;;;;;;;3.10;1.10;;;15.50;65.20;;;;;;5070424;28;20031;-76
2024/03/26 05:18:25;;;;;;;1.95;1.00;;;15.50;65.10;;;;;;5085457;28;20086;-75
2024/03/26 05:20:51;;;;;;;1.80;1.33;;;15.50;65.20;;;;;;5069051;28;20024;-75
2024/03/26 05:23:18;;;;;;;1.90;1.23;;;15.50;65.10;;;;;;5085541;28;20028;-75
2024/03/26 05:25:44;;;;;;;;;;;15.50;65.10;;;;;;5070666;28;20024;-75
2024/03/26 05:28:10;;;;;;;2.75;1.20;;;15.50;65.20;;;;;;5070631;28;19905;-76
2024/03/26 05:30:38;;;;;;;3.50;1.90;;;15.40;65.20;;;;;;5068729;28;20033;-76
2024/03/26 05:33:04;;;;;;;3.40;1.20;;;15.40;65.20;;;;;;5068691;28;20021;-76
2024/03/26 05:35:30;;;;;;;1.55;1.05;;;15.40;65.10;;;;;;5068700;28;20094;-76
2024/03/26 05:37:58;;;;;;;1.80;1.00;;;15.50;65.10;;;;;;5070232;28;20028;-76
2024/03/26 05:40:24;;;;;;;2.60;0.95;;;15.40;65.10;;;;;;5069970;28;20070;-76
2024/03/26 05:42:50;;;;;;;3.23;1.33;;;15.40;65.00;;;;;;5070287;28;20043;-76
2024/03/26 05:45:15;;;;;;;2.93;1.30;;;15.40;65.00;;;;;;5085143;28;20037;-76
2024/03/26 05:47:41;;;;;;;2.07;1.30;;;15.40;65.10;;;;;;5085568;28;20052;-76
2024/03/26 05:50:07;;;;;;;5.30;1.20;;;15.40;65.00;;;;;;5085492;28;20487;-76
2024/03/26 05:52:33;;;;;;;2.85;1.45;;;15.40;65.00;;;;;;5085232;28;20032;-75
2024/03/26 05:54:59;;;;;;;2.35;1.00;;;15.40;65.00;;;;;;5085319;28;20052;-76
2024/03/26 05:57:24;;;;;;;2.70;1.17;;;15.40;64.90;;;;;;5069651;28;20068;-76
2024/03/26 05:59:50;;;;;;;2.43;1.20;;;15.40;64.90;;;;;;5085417;28;20044;-76
2024/03/26 06:02:16;;;;;;;2.80;1.23;;;15.40;64.90;;;;;;5069719;28;20012;-76
2024/03/26 06:04:42;;;;;;;2.63;1.10;;;15.40;64.70;;;;;;5069740;28;20025;-76
2024/03/26 06:07:08;;;;;;;1.83;1.20;;;15.40;64.60;;;;;;5069182;28;20124;-75
2024/03/26 06:09:33;;;;;;;1.47;0.70;;;15.50;64.60;;;;;;5084207;28;20020;-75
2024/03/26 06:11:59;;;;;;;1.43;1.00;;;15.50;64.40;;;;;;5085377;28;20020;-75
2024/03/26 06:14:25;;;;;;;1.92;0.90;;;15.60;64.20;;;;;;5085281;28;20032;-76
2024/03/26 06:16:51;;;;;;;1.37;0.83;;;15.60;64.10;;;;;;5085089;28;20039;-74
2024/03/26 06:19:17;;;;;;;2.90;1.13;;;15.70;63.80;;;;;;5084975;28;20023;-76
2024/03/26 06:21:43;;;;;;;5.32;1.52;;;15.70;63.60;;;;;;5085516;28;20025;-75
2024/03/26 06:24:10;;;;;;;3.67;1.40;;;15.70;63.50;;;;;;5089155;28;20376;-76
2024/03/26 06:26:36;;;;;;;3.13;1.45;;;15.70;63.30;;;;;;5088761;28;20020;-76
2024/03/26 06:29:02;;;;;;;2.27;1.07;;;15.70;63.40;;;;;;5072840;28;20035;-76
2024/03/26 06:31:28;;;;;;;3.95;0.93;;;15.70;63.30;;;;;;5071469;28;20476;-76
2024/03/26 06:33:53;;;;;;;2.10;1.47;;;15.70;63.20;;;;;;5071747;28;20025;-76
2024/03/26 06:36:19;;;;;;;2.73;1.10;;;15.80;63.10;;;;;;5088586;28;20024;-76
2024/03/26 06:38:45;;;;;;;4.43;1.03;;;15.90;62.90;;;;;;5073167;28;20078;-75
2024/03/26 06:41:10;;;;;;;2.90;1.13;;;15.90;62.70;;;;;;5072234;28;20078;-75
2024/03/26 06:43:36;;;;;;;3.87;1.20;;;16.00;62.50;;;;;;5071934;28;20380;-76
2024/03/26 06:46:04;;;;;;;2.23;1.27;;;16.00;62.30;;;;;;5088304;28;20012;-75
2024/03/26 06:48:30;;;;;;;2.22;1.17;;;16.00;62.20;;;;;;5071320;28;20028;-76
2024/03/26 06:50:55;;;;;;;1.03;0.80;;;16.10;62.10;;;;;;5087624;28;20021;-75
2024/03/26 06:53:21;;;;;;;2.70;1.07;;;16.10;62.10;;;;;;5087899;28;20052;-75
2024/03/26 06:55:47;;;;;;;1.77;1.43;;;16.10;61.90;;;;;;5071819;28;20074;-76
2024/03/26 06:58:12;;;;;;;3.73;1.00;;;16.20;61.70;;;;;;5072725;28;20089;-76
2024/03/26 07:00:38;;;;;;;2.23;1.23;;;16.30;61.30;;;;;;5087979;28;20017;-76
2024/03/26 07:03:06;;;;;;;1.77;1.20;;;16.30;61.00;;;;;;5072226;28;20151;-76
2024/03/26 07:05:32;;;;;;;3.95;1.10;;;16.50;60.80;;;;;;5071875;28;20021;-76
2024/03/26 07:07:57;;;;;;;3.30;1.40;;;16.50;60.40;;;;;;5071748;28;20027;-76
2024/03/26 07:10:23;;;;;;;3.33;1.07;;;16.60;60.20;;;;;;5088051;28;20024;-76
2024/03/26 07:12:49;;;;;;;2.30;1.20;;;16.70;59.90;;;;;;5087279;28;20363;-76
2024/03/26 07:15:14;;;;;;;2.43;0.80;;;16.70;59.90;;;;;;5071598;28;20108;-76
2024/03/26 07:17:40;;;;;;;2.50;0.97;;;16.80;59.60;;;;;;5087799;28;20493;-76
2024/03/26 07:20:09;;;;;;;2.53;1.10;;;16.80;59.60;;;;;;5071908;28;20025;-75
2024/03/26 07:22:37;;;;;;;0.82;0.70;;;16.80;59.40;;;;;;5087365;28;20518;-76
2024/03/26 07:25:03;;;;;;;1.85;1.55;;;16.80;59.50;;;;;;5070497;28;20028;-76
2024/03/26 07:27:29;;;;;;;2.08;0.90;;;16.80;59.50;;;;;;5087575;28;20028;-76
2024/03/26 07:29:55;;;;;;;1.70;1.13;;;16.90;59.20;;;;;;5072031;28;20112;-76
2024/03/26 07:32:20;;;;;;;2.63;1.20;;;16.90;59.00;;;;;;5071490;28;20020;-76
2024/03/26 07:34:46;;;;;;;1.40;1.20;;;16.90;59.00;;;;;;5071810;28;20521;-75
2024/03/26 07:37:12;;;;;;;3.83;1.10;;;16.90;59.10;;;;;;5071362;28;20343;-76
2024/03/26 07:39:38;;;;;;;1.27;0.83;;;16.90;58.80;;;;;;5070876;28;20150;-75
2024/03/26 07:42:03;;;;;;;4.17;1.23;;;16.90;58.90;;;;;;5087345;28;20032;-75
2024/03/26 07:44:29;;;;;;;1.47;0.97;;;17.20;58.60;;;;;;5087735;28;20736;-76
2024/03/26 07:46:55;;;;;;;3.17;1.10;;;17.50;57.50;;;;;;5087303;28;20469;-75
2024/03/26 07:49:20;;;;;;;5.37;1.20;;;17.80;56.60;;;;;;5070586;28;20036;-75
2024/03/26 07:51:48;;;;;;;2.87;0.90;;;17.90;56.10;;;;;;5072143;28;20031;-75
2024/03/26 07:54:14;;;;;;;2.55;1.42;;;18.00;56.00;;;;;;5086795;28;20020;-76
2024/03/26 07:56:39;;;;;;;1.65;1.10;;;18.00;55.00;;;;;;5058987;28;20035;-76
2024/03/26 07:59:05;;;;;;;1.10;0.90;;;18.00;55.10;;;;;;5086384;28;20016;-76
2024/03/26 08:01:31;;;;;;;2.27;1.10;;;18.10;55.40;;;;;;5069671;28;20024;-75
2024/03/26 08:03:56;;;;;;;2.43;1.10;;;18.10;55.40;;;;;;5071106;28;20111;-75
2024/03/26 08:06:22;;;;;;;1.43;1.00;;;18.20;55.10;;;;;;5067061;28;20128;-76
2024/03/26 08:08:50;;;;;;;2.70;1.23;;;18.30;55.20;;;;;;5070500;28;20070;-76
2024/03/26 08:11:16;;;;;;;2.33;1.13;;;18.20;55.20;;;;;;5080510;28;20123;-76
2024/03/26 08:13:42;;;;;;;3.95;1.20;;;18.30;55.00;;;;;;5086629;28;20025;-75
2024/03/26 08:16:08;;;;;;;1.50;0.90;;;18.50;54.60;;;;;;5070932;28;20032;-75
2024/03/26 08:18:34;;;;;;;2.10;1.00;;;18.60;54.20;;;;;;5070516;28;20031;-76
2024/03/26 08:21:00;;;;;;;3.43;1.00;;;18.50;54.50;;;;;;5070350;28;20028;-75
2024/03/26 08:23:26;;;;;;;4.77;1.30;;;18.50;54.80;;;;;;5069029;28;20032;-76
2024/03/26 08:25:52;;;;;;;3.35;0.95;;;18.50;54.80;;;;;;5089557;28;20036;-76
2024/03/26 08:28:18;;;;;;;1.80;1.08;;;18.40;55.30;;;;;;5070608;28;20410;-76
2024/03/26 08:30:43;;;;;;;1.97;1.17;;;18.40;55.20;;;;;;5085448;28;20036;-77
2024/03/26 08:33:09;;;;;;;3.10;1.20;;;18.30;54.70;;;;;;5084774;28;20047;-79
2024/03/26 08:35:42;;;;;;;1.53;1.00;;;18.40;54.80;;;;;;5069493;28;20450;-78
2024/03/26 08:38:08;;;;;;;2.67;1.10;;;18.40;55.00;;;;;;5068035;28;20095;-76
2024/03/26 08:40:34;;;;;;;3.95;1.17;;;18.60;55.50;;;;;;5073952;28;20021;-78
2024/03/26 08:43:00;;;;;;;1.70;1.20;;;18.60;55.10;;;;;;5065278;28;20020;-79
2024/03/26 08:45:26;;;;;;;2.97;1.10;;;18.80;54.60;;;;;;5076687;28;20120;-76
2024/03/26 08:47:52;;;;;;;1.80;1.00;;;19.30;53.60;;;;;;5069356;28;20031;-77
2024/03/26 08:50:18;;;;;;;1.52;1.00;;;19.90;52.10;;;;;;5070334;28;20131;-76
2024/03/26 08:52:44;;;;;;;;;;;20.00;51.70;;;;;;5070575;28;20028;-77
2024/03/26 08:55:10;;;;;;;2.80;1.02;;;20.00;51.70;;;;;;5069486;28;20272;-76
2024/03/26 08:57:35;;;;;;;3.13;1.07;;;20.10;51.40;;;;;;5069422;28;20701;-77
2024/03/26 09:00:03;;;;;;;2.73;1.03;;;19.80;52.10;;;;;;5072031;28;20063;-77
2024/03/26 09:02:29;;;;;;;2.05;1.10;;;20.00;52.00;;;;;;5085083;28;20112;-78
2024/03/26 09:04:55;;;;;;;1.33;0.95;;;20.20;51.40;;;;;;5069190;28;20040;-77
2024/03/26 09:07:21;;;;;;;2.97;1.02;;;19.80;52.10;;;;;;5085818;28;20056;-79
2024/03/26 09:09:47;;;;;;;9.47;1.00;;;19.40;53.40;;;;;;5070101;28;20031;-79
2024/03/26 09:12:12;;;;;;;2.07;0.90;;;19.20;53.90;;;;;;5083960;28;20115;-78
2024/03/26 09:14:38;;;;;;;4.87;1.30;;;19.80;52.90;;;;;;5068956;28;20158;-79
2024/03/26 09:17:04;;;;;;;5.17;1.20;;;20.30;51.60;;;;;;5084090;28;20029;-78
2024/03/26 09:19:30;;;;;;;3.40;1.23;;;20.10;52.10;;;;;;5085438;28;20117;-78
2024/03/26 09:21:56;;;;;;;6.65;1.33;;;20.20;52.00;;;;;;5069948;28;20024;-76
2024/03/26 09:24:22;;;;;;;3.28;1.13;;;20.30;51.50;;;;;;5068751;28;20041;-76
2024/03/26 09:26:47;;;;;;;6.47;1.17;;;20.30;51.30;;;;;;5070478;28;20035;-76
2024/03/26 09:29:13;;;;;;;5.50;1.20;;;20.10;51.90;;;;;;5085502;28;20062;-77
2024/03/26 09:31:39;;;;;;;3.70;1.80;;;19.90;52.50;;;;;;5085617;28;20020;-76
2024/03/26 09:34:05;;;;;;;6.55;1.75;;;19.80;52.90;;;;;;5085364;28;20040;-78
2024/03/26 09:36:31;;;;;;;10.45;1.50;;;19.80;52.90;;;;;;5068632;28;20145;-78
2024/03/26 09:38:57;;;;;;;4.70;1.92;;;19.50;53.80;;;;;;5068549;28;20024;-79
2024/03/26 09:41:28;;;;;;;2.03;0.90;;;19.40;54.10;;;;;;5068767;28;20489;-77
2024/03/26 09:43:53;;;;;;;2.58;1.23;;;19.20;54.40;;;;;;5070065;28;20470;-79
2024/03/26 09:46:22;;;;;;;2.60;1.23;;;19.20;54.70;;;;;;5069947;28;20029;-77
2024/03/26 09:48:48;;;;;;;10.20;1.67;;;19.00;55.30;;;;;;5085295;28;20354;-78
2024/03/26 09:51:14;;;;;;;4.43;1.40;;;19.00;55.70;;;;;;5085064;28;20479;-75
2024/03/26 09:53:43;;;;;;;7.93;1.27;;;19.00;55.50;;;;;;5068366;28;20123;-75
2024/03/26 09:56:08;;;;;;;8.52;1.30;;;19.10;55.60;;;;;;5068503;28;20029;-76
2024/03/26 09:58:36;;;;;;;4.63;1.60;;;19.00;55.80;;;;;;5087937;28;20154;-76
2024/03/26 10:01:06;;;;;;;9.65;1.20;;;19.00;55.80;;;;;;5071647;28;20033;-76
2024/03/26 10:03:33;;;;;;;5.82;1.58;;;18.90;56.00;;;;;;5059053;28;20024;-76
2024/03/26 10:06:02;;;;;;;11.15;1.52;;;18.90;55.80;;;;;;5088822;28;20094;-76
2024/03/26 10:08:29;;;;;;;6.22;1.20;;;18.80;56.40;;;;;;5088586;28;20025;-75
2024/03/26 10:10:55;;;;;;;6.22;0.90;;;18.90;56.50;;;;;;5072285;28;20032;-76
2024/03/26 10:13:22;;;;;;;4.78;1.20;;;19.00;56.30;;;;;;5071785;28;20115;-74
2024/03/26 10:15:48;;;;;;;3.47;1.52;;;18.90;56.60;;;;;;5078986;28;20036;-74
2024/03/26 10:18:14;;;;;;;6.28;1.40;;;18.90;56.50;;;;;;5068849;28;20024;-74
2024/03/26 10:20:40;;;;;;;4.13;1.23;;;19.00;56.10;;;;;;5073347;28;20037;-74
2024/03/26 10:23:09;;;;;;;4.47;1.30;;;18.80;56.20;;;;;;5073769;28;20020;-74
2024/03/26 10:25:35;;;;;;;4.05;1.50;;;18.70;56.70;;;;;;5059063;28;20029;-75
2024/03/26 10:28:02;;;;;;;1.42;1.05;;;18.70;56.80;;;;;;5073105;28;20096;-74
2024/03/26 10:30:28;;;;;;;5.25;1.73;;;18.60;57.10;;;;;;5072135;28;20043;-74
2024/03/26 10:32:58;;;;;;;3.45;1.42;;;18.50;57.40;;;;;;5062258;28;20320;-74
2024/03/26 10:35:25;;;;;;;4.25;1.23;;;18.40;57.60;;;;;;5072572;28;20043;-75
2024/03/26 10:37:55;;;;;;;4.03;1.52;;;18.40;57.90;;;;;;5088272;28;20035;-74
2024/03/26 10:40:34;;;;;;;4.20;1.40;;;18.30;58.10;;;;;;5066934;28;20032;-74
2024/03/26 10:43:01;;;;;;;3.95;1.60;;;18.30;58.20;;;;;;5062127;28;20060;-74
2024/03/26 10:45:27;;;;;;;2.28;1.30;;;18.30;58.40;;;;;;5088016;28;20020;-74
2024/03/26 10:47:57;;;;;;;10.27;1.40;;;18.20;58.40;;;;;;5088208;28;20102;-74
2024/03/26 10:50:23;;;;;;;3.38;1.42;;;18.20;58.30;;;;;;5073025;28;20020;-74
2024/03/26 10:52:51;;;;;;;3.65;1.17;;;18.20;58.40;;;;;;5087837;28;20025;-74
2024/03/26 10:55:17;;;;;;;4.32;1.50;;;18.20;58.30;;;;;;5072618;28;20032;-74
2024/03/26 10:57:43;;;;;;;6.65;1.55;;;18.10;58.50;;;;;;5072559;28;20029;-74
2024/03/26 11:00:12;;;;;;;4.07;1.50;;;18.10;58.60;;;;;;5087173;28;20032;-76
2024/03/26 11:02:51;;;;;;;8.40;2.13;;;18.10;58.90;;;;;;5072443;28;20025;-76
2024/03/26 11:05:17;;;;;;;6.20;1.50;;;18.10;59.10;;;;;;5062014;28;20024;-75
2024/03/26 11:07:44;;;;;;;14.65;8.40;;;18.10;59.00;;;;;;5086970;28;20094;-75
2024/03/26 11:10:15;;;;;;;20.05;11.63;;;18.10;59.20;;;;;;5072052;28;20017;-76
2024/03/26 11:12:42;;;;;;;12.80;6.22;;;18.10;59.80;;;;;;5070710;28;20060;-76
2024/03/26 11:15:16;;;;;;;14.90;8.80;;;18.10;59.80;;;;;;5070847;28;20028;-75
2024/03/26 11:18:11;;;;;;;16.08;7.43;;;18.10;60.00;;;;;;5070714;28;20033;-75
2024/03/26 11:20:37;;;;;;;10.07;6.22;;;18.20;59.70;;;;;;5029203;28;20033;-75
2024/03/26 11:23:05;;;;;;;17.33;11.67;;;18.20;59.70;;;;;;5012529;28;20382;-76
2024/03/26 11:25:32;;;;;;;17.27;9.98;;;18.20;59.80;;;;;;5012199;28;20052;-75
2024/03/26 11:28:00;;;;;;;24.20;10.30;;;18.20;60.20;;;;;;5029107;28;20033;-75
2024/03/26 11:30:27;;;;;;;21.73;9.27;;;18.20;60.20;;;;;;5011921;28;20136;-76
2024/03/26 11:32:53;;;;;;;12.50;8.50;;;18.30;60.30;;;;;;5013327;28;20021;-75
2024/03/26 11:35:24;;;;;;;17.30;7.50;;;18.30;60.10;;;;;;5012650;28;20123;-75
2024/03/26 11:37:52;;;;;;;13.05;6.78;;;18.30;60.10;;;;;;5009637;28;20041;-75
2024/03/26 11:40:19;;;;;;;11.30;6.43;;;18.30;60.00;;;;;;5026520;28;20494;-75
2024/03/26 11:42:49;;;;;;;8.57;5.70;;;18.30;59.90;;;;;;5028830;28;20029;-75
2024/03/26 11:45:15;;;;;;;12.35;5.75;;;18.30;60.00;;;;;;5010971;28;20065;-75
2024/03/26 11:47:41;;;;;;;10.10;4.60;;;18.30;60.30;;;;;;5022895;28;20180;-75
2024/03/26 11:50:08;;;;;;;6.20;4.47;;;18.30;60.50;;;;;;5010244;28;20048;-75
2024/03/26 11:52:34;;;;;;;933.58;563.30;;;18.30;60.40;;;;;;5025896;28;20044;-75
2024/03/26 11:55:04;;;;;;;244.00;131.30;;;18.30;60.60;;;;;;5025485;28;20034;-75
2024/03/26 11:57:29;;;;;;;161.05;81.28;;;18.30;61.00;;;;;;5043311;28;20041;-74
2024/03/26 11:59:55;;;;;;;260.43;133.80;;;18.30;61.20;;;;;;5079447;28;20032;-75
2024/03/26 12:02:21;;;;;;;215.30;107.72;;;18.20;61.20;;;;;;5065039;28;20033;-75
2024/03/26 12:04:47;;;;;;;203.83;107.50;;;18.20;61.50;;;;;;5064098;28;20763;-75
2024/03/26 12:07:23;;;;;;;183.53;95.27;;;18.30;61.40;;;;;;5074435;28;20045;-75
2024/03/26 12:09:49;;;;;;;163.32;85.25;;;18.30;61.60;;;;;;5065350;28;20253;-75
2024/03/26 12:12:15;;;;;;;154.53;80.27;;;18.30;61.40;;;;;;5067431;28;20039;-75
2024/03/26 12:14:41;;;;;;;145.03;73.73;;;18.30;61.60;;;;;;5069048;28;20068;-74
2024/03/26 12:17:08;;;;;;;133.02;69.80;;;18.30;61.60;;;;;;5068015;28;20049;-75
2024/03/26 12:19:34;;;;;;;124.00;67.77;;;18.30;61.60;;;;;;5067361;28;20029;-74
2024/03/26 12:22:16;;;;;;;117.50;62.72;;;18.30;61.50;;;;;;5065027;28;20029;-74
2024/03/26 12:24:42;;;;;;;109.97;57.08;;;18.30;61.70;;;;;;5067741;28;20031;-74
2024/03/26 12:27:10;;;;;;;101.97;54.60;;;18.30;61.60;;;;;;5067278;28;20679;-74
2024/03/26 12:29:37;;;;;;;98.93;51.22;;;18.20;61.90;;;;;;5066299;28;20016;-74
2024/03/26 12:32:05;;;;;;;92.45;50.35;;;18.30;61.70;;;;;;5063655;28;20031;-74
2024/03/26 12:34:35;;;;;;;95.65;50.53;;;18.30;61.80;;;;;;5062516;28;20033;-75
2024/03/26 12:37:02;;;;;;;96.10;53.63;;;18.40;61.60;;;;;;5063643;28;20068;-75
2024/03/26 12:39:29;;;;;;;94.25;46.83;;;18.40;61.70;;;;;;5068377;28;20024;-76
2024/03/26 12:41:55;;;;;;;;;;;18.40;61.80;;;;;;5070841;28;20024;-75